createdAt,value
2023-03-07T00:01:23.540Z,29.19
2023-03-07T00:04:46.203Z,29.14
2023-03-07T00:08:07.965Z,29.09
2023-03-07T00:11:30.214Z,29.04
2023-03-07T00:14:51.941Z,28.99
2023-03-07T00:18:17.098Z,28.93
2023-03-07T00:21:38.851Z,28.89
2023-03-07T00:25:00.623Z,28.85
2023-03-07T00:28:22.367Z,28.79
2023-03-07T00:31:44.224Z,28.75
2023-03-07T00:35:07.216Z,28.70
2023-03-07T00:38:30.661Z,28.66
2023-03-07T00:41:52.667Z,28.63
2023-03-07T00:45:14.731Z,28.58
2023-03-07T00:48:38.619Z,28.53
2023-03-07T00:52:00.779Z,28.49
2023-03-07T00:55:22.948Z,28.45
2023-03-07T00:58:45.567Z,28.42
2023-03-07T01:02:07.354Z,28.38
2023-03-07T01:05:29.131Z,28.34
2023-03-07T01:08:51.313Z,28.30
2023-03-07T01:12:13.081Z,28.27
2023-03-07T01:15:34.862Z,28.22
2023-03-07T01:18:59.505Z,28.16
2023-03-07T01:22:21.536Z,28.13
2023-03-07T01:25:43.810Z,28.10
2023-03-07T01:29:06.936Z,28.04
2023-03-07T01:32:30.620Z,28.01
2023-03-07T01:35:53.252Z,27.97
2023-03-07T01:39:17.208Z,27.94
2023-03-07T01:42:46.342Z,27.90
2023-03-07T01:46:17.556Z,27.88
2023-03-07T01:49:46.228Z,27.84
2023-03-07T01:53:08.766Z,27.82
2023-03-07T01:56:31.474Z,27.78
2023-03-07T01:59:55.911Z,27.75
2023-03-07T02:03:21.904Z,27.71
2023-03-07T02:06:44.123Z,27.67
2023-03-07T02:10:07.527Z,27.65
2023-03-07T02:13:29.382Z,27.62
2023-03-07T02:16:51.266Z,27.58
2023-03-07T02:20:28.409Z,27.55
2023-03-07T02:24:02.712Z,27.51
2023-03-07T02:27:29.400Z,27.48
2023-03-07T02:31:00.393Z,27.45
2023-03-07T02:34:27.755Z,27.42
2023-03-07T02:38:02.316Z,27.39
2023-03-07T02:41:27.547Z,27.39
2023-03-07T02:44:57.672Z,27.38
2023-03-07T02:48:19.901Z,27.36
2023-03-07T02:51:41.720Z,27.32
2023-03-07T02:55:03.719Z,27.29
2023-03-07T02:58:27.573Z,27.28
2023-03-07T03:01:49.636Z,27.29
2023-03-07T03:05:17.780Z,27.27
2023-03-07T03:08:39.568Z,27.28
2023-03-07T03:12:01.394Z,27.28
2023-03-07T03:15:23.953Z,27.25
2023-03-07T03:18:47.890Z,27.22
2023-03-07T03:22:09.712Z,27.20
2023-03-07T03:25:33.068Z,27.17
2023-03-07T03:28:55.039Z,27.13
2023-03-07T03:32:17.357Z,27.12
2023-03-07T03:35:39.934Z,27.07
2023-03-07T03:39:02.004Z,27.05
2023-03-07T03:42:24.632Z,27.02
2023-03-07T03:45:55.194Z,27.00
2023-03-07T03:49:17.494Z,26.95
2023-03-07T03:52:39.844Z,26.94
2023-03-07T03:56:04.518Z,26.91
2023-03-07T03:59:26.298Z,26.89
2023-03-07T04:02:48.616Z,26.86
2023-03-07T04:06:16.003Z,26.84
2023-03-07T04:09:37.783Z,26.82
2023-03-07T04:12:59.979Z,26.79
2023-03-07T04:16:22.762Z,26.77
2023-03-07T04:19:48.881Z,26.75
2023-03-07T04:23:11.914Z,26.73
2023-03-07T04:26:34.729Z,26.71
2023-03-07T04:29:57.028Z,26.68
2023-03-07T04:33:19.767Z,26.65
2023-03-07T04:36:41.549Z,26.63
2023-03-07T04:40:04.175Z,26.60
2023-03-07T04:43:31.937Z,26.57
2023-03-07T04:46:54.646Z,26.55
2023-03-07T04:50:20.234Z,26.55
2023-03-07T04:53:42.325Z,26.53
2023-03-07T04:57:04.358Z,26.50
2023-03-07T05:00:26.408Z,26.48
2023-03-07T05:03:48.332Z,26.44
2023-03-07T05:07:11.888Z,26.43
2023-03-07T05:10:34.612Z,26.40
2023-03-07T05:13:57.860Z,26.39
2023-03-07T05:17:19.822Z,26.38
2023-03-07T05:20:43.187Z,26.36
2023-03-07T05:24:05.192Z,26.34
2023-03-07T05:27:28.591Z,26.30
2023-03-07T05:30:51.107Z,26.29
2023-03-07T05:34:13.431Z,26.27
2023-03-07T05:37:35.706Z,26.26
2023-03-07T05:40:57.661Z,26.23
2023-03-07T05:44:20.023Z,26.21
2023-03-07T05:47:42.000Z,26.19
2023-03-07T05:51:08.451Z,26.17
2023-03-07T05:54:30.389Z,26.12
2023-03-07T05:57:52.942Z,26.10
2023-03-07T06:01:15.135Z,26.06
2023-03-07T06:04:36.980Z,26.05
2023-03-07T06:07:59.333Z,26.02
2023-03-07T06:11:21.197Z,25.97
2023-03-07T07:05:33.147Z,25.44
2023-03-07T07:08:56.702Z,25.42
2023-03-07T07:12:19.388Z,25.32
2023-03-07T07:15:41.719Z,25.21
2023-03-07T07:19:04.467Z,25.11
2023-03-07T07:22:26.675Z,25.02
2023-03-07T07:25:48.838Z,24.93
2023-03-07T07:29:11.195Z,24.87
2023-03-07T07:32:33.401Z,24.76
2023-03-07T07:35:56.236Z,24.62
2023-03-07T07:39:18.340Z,24.48
2023-03-07T07:42:41.062Z,24.35
2023-03-07T07:46:16.618Z,24.21
2023-03-07T07:49:39.179Z,24.11
2023-03-07T07:53:01.596Z,23.93
2023-03-07T07:56:23.493Z,23.72
2023-03-07T07:59:45.491Z,23.31
2023-03-07T08:03:08.073Z,22.67
2023-03-07T08:06:30.907Z,22.04
2023-03-07T08:09:56.419Z,21.39
2023-03-07T08:13:18.239Z,20.70
2023-03-07T08:16:40.115Z,20.00
2023-03-07T08:20:08.219Z,19.30
2023-03-07T08:23:29.973Z,18.62
2023-03-07T08:26:51.720Z,18.00
2023-03-07T08:30:14.546Z,17.28
2023-03-07T08:33:36.389Z,16.61
2023-03-07T08:36:58.238Z,16.37
2023-03-07T08:40:20.057Z,16.40
2023-03-07T08:43:41.899Z,16.54
2023-03-07T08:47:03.716Z,16.52
2023-03-07T08:50:28.144Z,16.21
2023-03-07T08:53:49.872Z,15.67
2023-03-07T08:57:11.750Z,15.19
2023-03-07T09:00:35.269Z,14.71
2023-03-07T09:03:57.430Z,14.22
2023-03-07T09:07:19.421Z,13.80
2023-03-07T09:10:41.403Z,13.40
2023-03-07T09:14:03.568Z,13.04
2023-03-07T09:17:25.716Z,12.77
2023-03-07T09:20:47.478Z,12.53
2023-03-07T09:24:09.523Z,12.35
2023-03-07T09:27:34.666Z,12.14
2023-03-07T09:30:56.512Z,12.01
2023-03-07T09:34:18.375Z,11.92
2023-03-07T09:37:40.409Z,11.80
2023-03-07T09:41:17.556Z,11.70
2023-03-07T09:44:51.511Z,11.82
2023-03-07T09:49:13.210Z,12.29
2023-03-07T09:52:37.732Z,12.69
2023-03-07T09:56:02.092Z,12.96
2023-03-07T09:59:40.036Z,13.06
2023-03-07T10:03:20.347Z,13.09
2023-03-07T10:06:46.664Z,13.08
2023-03-07T10:10:21.040Z,13.25
2023-03-07T10:13:51.610Z,13.57
2023-03-07T10:17:13.535Z,13.89
2023-03-07T10:20:53.663Z,14.29
2023-03-07T10:25:06.442Z,14.66
2023-03-07T10:28:36.847Z,15.13
2023-03-07T10:32:23.539Z,15.54
2023-03-07T10:35:51.829Z,15.93
2023-03-07T10:39:36.104Z,16.28
2023-03-07T10:42:59.128Z,16.60
2023-03-07T10:46:26.219Z,16.72
2023-03-07T10:49:50.830Z,16.89
2023-03-07T10:53:34.208Z,17.07
2023-03-07T10:57:18.983Z,17.26
2023-03-07T11:00:41.364Z,17.54
2023-03-07T11:04:08.266Z,17.78
2023-03-07T11:07:34.709Z,18.00
2023-03-07T11:10:57.062Z,18.06
2023-03-07T11:14:19.139Z,18.15
2023-03-07T11:17:43.421Z,18.16
2023-03-07T11:21:05.501Z,18.21
2023-03-07T11:24:32.913Z,18.17
2023-03-07T11:27:56.830Z,18.11
2023-03-07T11:31:44.777Z,17.95
2023-03-07T11:35:14.719Z,17.80
2023-03-07T11:38:45.641Z,17.75
2023-03-07T11:42:23.266Z,17.69
2023-03-07T11:46:03.305Z,17.63
2023-03-07T11:49:53.601Z,17.64
2023-03-07T11:53:43.838Z,17.62
2023-03-07T11:57:44.114Z,17.64
2023-03-07T12:01:47.787Z,17.72
2023-03-07T12:05:41.194Z,17.77
2023-03-07T12:09:13.688Z,17.83
2023-03-07T12:12:41.576Z,17.83
2023-03-07T12:16:50.829Z,17.95
2023-03-07T12:20:40.706Z,18.01
2023-03-07T12:24:08.178Z,18.08
2023-03-07T12:27:37.223Z,18.11
2023-03-07T12:31:31.665Z,18.17
2023-03-07T12:35:01.371Z,18.19
2023-03-07T12:38:50.317Z,18.23
2023-03-07T12:42:42.516Z,17.99
2023-03-07T12:46:36.835Z,17.83
2023-03-07T12:50:18.239Z,17.82
2023-03-07T12:53:50.316Z,17.88
2023-03-07T12:57:22.599Z,17.96
2023-03-07T13:00:49.919Z,18.13
2023-03-07T13:04:44.301Z,18.35
2023-03-07T13:08:07.411Z,18.56
2023-03-07T13:11:31.752Z,18.77
2023-03-07T13:14:57.151Z,18.98
2023-03-07T13:18:32.416Z,19.17
2023-03-07T13:21:54.272Z,19.37
2023-03-07T13:25:27.140Z,19.56
2023-03-07T13:28:53.948Z,19.74
2023-03-07T13:33:09.600Z,19.93
2023-03-07T13:36:39.132Z,20.14
2023-03-07T13:40:21.167Z,20.28
2023-03-07T13:43:45.976Z,20.55
2023-03-07T13:47:43.240Z,20.78
2023-03-07T13:51:09.599Z,21.05
2023-03-07T13:54:31.464Z,21.21
2023-03-07T13:57:55.734Z,21.39
2023-03-07T14:01:20.293Z,21.56
2023-03-07T14:04:46.507Z,21.77
2023-03-07T14:08:11.090Z,21.97
2023-03-07T14:12:09.985Z,22.02
2023-03-07T14:15:50.186Z,22.06
2023-03-07T14:19:31.050Z,22.14
2023-03-07T14:23:05.327Z,22.31
2023-03-07T14:30:24.901Z,22.56
2023-03-07T14:33:56.189Z,22.65
2023-03-07T14:37:23.314Z,22.69
2023-03-07T14:40:57.578Z,22.63
2023-03-07T14:44:58.062Z,22.53
2023-03-07T14:48:44.825Z,22.52
2023-03-07T14:52:18.721Z,22.55
2023-03-07T14:55:52.570Z,22.60
2023-03-07T14:59:26.298Z,22.62
2023-03-07T15:03:01.160Z,22.64
2023-03-07T15:06:25.996Z,22.68
2023-03-07T15:09:47.993Z,22.76
2023-03-07T15:13:28.898Z,22.82
2023-03-07T15:16:53.097Z,22.87
2023-03-07T15:20:27.365Z,22.96
2023-03-07T15:23:54.159Z,23.03
2023-03-07T15:27:21.805Z,23.16
2023-03-07T15:30:47.727Z,23.26
2023-03-07T15:34:24.752Z,23.31
2023-03-07T15:37:56.790Z,23.32
2023-03-07T15:41:34.073Z,23.27
2023-03-07T15:45:00.585Z,23.17
2023-03-07T15:48:30.502Z,23.05
2023-03-07T15:51:55.224Z,22.92
2023-03-07T15:55:19.719Z,22.81
2023-03-07T15:58:44.164Z,22.71
2023-03-07T16:02:33.960Z,22.59
2023-03-07T16:06:44.244Z,22.51
2023-03-07T16:14:24.718Z,22.37
2023-03-07T16:17:52.206Z,22.33
2023-03-07T16:21:15.653Z,22.31
2023-03-07T16:24:38.021Z,22.26
2023-03-07T16:28:00.600Z,22.24
2023-03-07T16:31:22.503Z,22.22
2023-03-07T16:34:44.610Z,22.20
2023-03-07T16:38:07.446Z,22.20
2023-03-07T16:41:32.102Z,22.18
2023-03-07T16:49:51.025Z,22.15
2023-03-07T16:53:12.831Z,22.16
2023-03-07T16:56:45.048Z,22.16
2023-03-07T17:00:12.086Z,22.14
2023-03-07T17:03:38.989Z,22.15
2023-03-07T17:07:05.011Z,22.17
2023-03-07T17:10:29.928Z,22.20
2023-03-07T17:14:02.066Z,22.37
2023-03-07T17:17:29.227Z,22.43
2023-03-07T17:20:52.193Z,22.44
2023-03-07T17:24:14.158Z,22.43
2023-03-07T17:27:41.395Z,22.42
2023-03-07T17:34:40.023Z,22.36
2023-03-07T17:38:02.201Z,22.37
2023-03-07T17:41:24.102Z,22.37
2023-03-07T17:44:48.539Z,22.36
2023-03-07T17:48:13.522Z,22.37
2023-03-07T17:51:35.425Z,22.37
2023-03-07T17:54:57.324Z,22.36
2023-03-07T17:58:21.172Z,22.35
2023-03-07T18:01:45.490Z,22.34
2023-03-07T18:05:08.038Z,22.35
2023-03-07T18:08:29.978Z,22.34
2023-03-07T18:11:52.182Z,22.34
2023-03-07T18:15:15.745Z,22.34
2023-03-07T18:18:50.616Z,22.36
2023-03-07T18:22:21.172Z,22.36
2023-03-07T18:25:43.210Z,22.39
2023-03-07T18:29:07.137Z,22.38
2023-03-07T18:32:30.687Z,22.39
2023-03-07T18:35:52.599Z,22.39
2023-03-07T18:39:17.308Z,22.40
2023-03-07T18:42:39.349Z,22.42
2023-03-07T18:46:06.758Z,22.43
2023-03-07T18:49:28.910Z,22.43
2023-03-07T18:52:52.017Z,22.43
2023-03-07T18:56:15.923Z,22.46
2023-03-07T18:59:40.167Z,22.44
2023-03-07T19:03:02.806Z,22.46
2023-03-07T19:06:27.310Z,22.44
2023-03-07T19:09:53.667Z,22.45
2023-03-07T19:13:15.841Z,22.49
2023-03-07T19:16:38.390Z,22.53
2023-03-07T19:20:00.366Z,22.54
2023-03-07T19:23:22.454Z,22.55
2023-03-07T19:26:44.317Z,22.57
2023-03-07T19:30:06.777Z,22.59
2023-03-07T19:33:28.618Z,22.62
2023-03-07T19:36:50.694Z,22.65
2023-03-07T19:40:13.170Z,22.81
2023-03-07T19:43:35.343Z,23.17
2023-03-07T19:46:57.194Z,23.30
2023-03-07T19:50:22.279Z,23.37
2023-03-07T19:53:45.209Z,23.41
2023-03-07T19:57:07.056Z,23.46
2023-03-07T20:00:37.315Z,23.48
2023-03-07T20:03:59.240Z,23.51
2023-03-07T20:07:22.012Z,23.53
2023-03-07T20:11:07.301Z,23.58
2023-03-07T20:14:33.578Z,23.61
2023-03-07T20:17:56.245Z,23.63
2023-03-07T20:21:19.356Z,23.65
2023-03-07T20:24:41.191Z,23.67
2023-03-07T20:28:05.482Z,23.67
2023-03-07T20:31:29.052Z,23.73
2023-03-07T20:34:52.975Z,24.07
2023-03-07T20:38:14.855Z,24.16
2023-03-07T20:41:36.898Z,24.20
2023-03-07T20:44:58.828Z,24.21
2023-03-07T20:48:20.698Z,24.20
2023-03-07T20:51:43.510Z,24.19
2023-03-07T20:55:06.220Z,24.19
2023-03-07T20:58:29.990Z,24.18
2023-03-07T21:01:51.840Z,24.20
2023-03-07T21:05:13.848Z,24.21
2023-03-07T21:12:13.472Z,24.22
2023-03-07T21:15:35.845Z,24.23
2023-03-07T21:19:01.899Z,24.23
2023-03-07T21:22:24.011Z,24.23
2023-03-07T21:25:46.700Z,24.26
2023-03-07T21:29:11.010Z,24.32
2023-03-07T21:32:33.362Z,24.37
2023-03-07T21:35:55.745Z,24.42
2023-03-07T21:39:17.481Z,24.46
2023-03-07T21:42:39.240Z,24.48
2023-03-07T21:46:09.764Z,24.52
2023-03-07T21:49:34.284Z,24.56
2023-03-07T21:52:56.041Z,24.57
2023-03-07T21:56:22.201Z,24.62
2023-03-07T21:59:45.804Z,24.63
2023-03-07T22:03:07.837Z,24.67
2023-03-07T22:06:29.796Z,24.73
2023-03-07T22:09:51.768Z,24.75
2023-03-07T22:13:13.630Z,24.77
2023-03-07T22:16:35.473Z,24.80
2023-03-07T22:19:57.793Z,24.83
2023-03-07T22:23:19.738Z,24.84
2023-03-07T22:26:41.607Z,24.87
2023-03-07T22:30:07.018Z,24.86
2023-03-07T22:33:28.808Z,24.85
2023-03-07T22:36:51.466Z,24.87
2023-03-07T22:40:13.585Z,24.88
2023-03-07T22:43:36.116Z,24.87
2023-03-07T22:46:57.936Z,24.87
2023-03-07T22:50:20.185Z,24.86
2023-03-07T22:53:42.018Z,24.86
2023-03-07T22:57:04.112Z,24.85
2023-03-07T23:00:26.301Z,24.84
2023-03-07T23:03:49.215Z,24.84
2023-03-07T23:07:11.016Z,24.83
2023-03-07T23:10:33.444Z,24.82
2023-03-07T23:13:56.277Z,24.83
2023-03-07T23:17:18.118Z,24.83
2023-03-07T23:20:39.939Z,24.83
2023-03-07T23:24:03.594Z,24.82
2023-03-07T23:27:25.493Z,24.82
2023-03-07T23:30:47.341Z,24.83
2023-03-07T23:34:16.469Z,24.84
2023-03-07T23:37:38.481Z,24.84
2023-03-07T23:41:00.275Z,24.84
2023-03-07T23:44:22.172Z,24.84
2023-03-07T23:47:44.742Z,24.85
2023-03-07T23:51:06.801Z,24.84
2023-03-07T23:54:31.785Z,24.85
2023-03-07T23:57:53.565Z,24.86
